Time;durP1;ratioP1;P1;durP2;ratioP2;P2;SDS_P1;SDS_P2;PMS_P1;PMS_P2;Temp;Humidity;BMP_temperature;BMP_pressure;BME280_temperature;BME280_humidity;BME280_pressure;Samples;Min_cycle;Max_cycle;Signal;HPM_P1;HPM_P2
2023/11/30 00:00:17;;;;;;;18.27;1.92;;;21.40;54.00;;;;;;4994793;28;20083;-66
2023/11/30 00:02:43;;;;;;;20.95;2.30;;;21.40;54.20;;;;;;4980794;28;20041;-65
2023/11/30 00:05:10;;;;;;;43.40;3.05;;;21.30;54.50;;;;;;4979437;28;20058;-65
2023/11/30 00:07:36;;;;;;;117.60;7.00;;;21.20;54.90;;;;;;4994643;28;20095;-65
2023/11/30 00:10:03;;;;;;;29.83;2.70;;;21.00;55.50;;;;;;4992643;28;20486;-66
2023/11/30 00:12:30;;;;;;;40.72;2.78;;;20.90;56.00;;;;;;4982711;28;20389;-68
2023/11/30 00:14:56;;;;;;;20.52;2.55;;;20.80;56.40;;;;;;5001660;28;20075;-63
2023/11/30 00:17:22;;;;;;;16.10;1.75;;;20.60;56.70;;;;;;5014430;28;20050;-65
2023/11/30 00:19:49;;;;;;;12.75;1.88;;;20.50;57.10;;;;;;4999838;28;20146;-65
2023/11/30 00:22:15;;;;;;;13.55;2.28;;;20.40;57.30;;;;;;5014232;28;20127;-66
2023/11/30 00:24:42;;;;;;;16.38;2.13;;;20.40;57.50;;;;;;4998117;28;20530;-66
2023/11/30 00:27:08;;;;;;;17.65;2.40;;;20.40;57.60;;;;;;5005850;28;20071;-67
2023/11/30 00:29:35;;;;;;;22.30;2.33;;;20.30;57.70;;;;;;5013832;28;20055;-68
2023/11/30 00:32:01;;;;;;;10.85;1.70;;;20.30;57.80;;;;;;5001991;28;20078;-67
2023/11/30 00:34:28;;;;;;;19.95;2.17;;;20.20;57.90;;;;;;5011934;28;20117;-65
2023/11/30 00:36:54;;;;;;;14.38;2.25;;;20.10;58.10;;;;;;5010756;28;20072;-64
2023/11/30 00:39:20;;;;;;;11.55;1.67;;;20.10;58.30;;;;;;4997294;28;20060;-64
2023/11/30 00:41:47;;;;;;;34.22;2.92;;;20.00;58.40;;;;;;5004431;28;20059;-67
2023/11/30 00:44:13;;;;;;;17.58;2.13;;;20.00;58.60;;;;;;4995419;28;20072;-65
2023/11/30 00:46:40;;;;;;;19.38;2.50;;;19.90;58.80;;;;;;4996824;28;20146;-64
2023/11/30 00:49:06;;;;;;;24.02;2.25;;;19.90;59.00;;;;;;4997190;28;20086;-67
2023/11/30 00:51:34;;;;;;;12.75;1.83;;;19.80;59.10;;;;;;4993376;28;20645;-67
2023/11/30 00:54:03;;;;;;;14.27;1.48;;;19.80;59.10;;;;;;4989486;28;20501;-66
2023/11/30 00:56:30;;;;;;;9.55;1.73;;;19.80;59.10;;;;;;4998836;28;20064;-65
2023/11/30 00:58:56;;;;;;;14.13;1.85;;;19.80;59.30;;;;;;4992853;28;20056;-68
2023/11/30 01:01:23;;;;;;;15.80;2.13;;;19.70;59.40;;;;;;4994250;28;20186;-69
2023/11/30 01:03:49;;;;;;;12.30;1.98;;;19.70;59.50;;;;;;4983639;28;20088;-73
2023/11/30 01:06:16;;;;;;;8.90;2.40;;;19.70;59.60;;;;;;4988059;28;20075;-68
2023/11/30 01:08:45;;;;;;;10.05;1.83;;;19.70;59.70;;;;;;4988982;28;20052;-68
2023/11/30 01:11:12;;;;;;;9.10;1.98;;;19.60;59.70;;;;;;4990568;28;20046;-64
2023/11/30 01:13:38;;;;;;;13.32;2.33;;;19.60;59.70;;;;;;4985133;28;20049;-67
2023/11/30 01:16:05;;;;;;;5.63;2.03;;;19.60;59.80;;;;;;4993077;28;20096;-66
2023/11/30 01:18:32;;;;;;;5.35;1.92;;;19.60;60.20;;;;;;4986441;28;20093;-67
2023/11/30 01:20:58;;;;;;;46.75;3.60;;;19.50;59.90;;;;;;4998452;28;20249;-65
2023/11/30 01:23:25;;;;;;;9.40;2.20;;;19.50;59.90;;;;;;5001604;28;20079;-68
2023/11/30 01:25:51;;;;;;;10.65;2.10;;;19.50;60.00;;;;;;5012606;28;20447;-65
2023/11/30 01:28:18;;;;;;;8.25;2.20;;;19.50;59.90;;;;;;4998270;28;20359;-69
2023/11/30 01:30:44;;;;;;;19.02;2.83;;;19.50;59.90;;;;;;5013537;28;20056;-64
2023/11/30 01:33:11;;;;;;;8.07;2.92;;;19.40;60.00;;;;;;5013338;28;20061;-65
2023/11/30 01:35:37;;;;;;;12.38;2.50;;;19.40;60.30;;;;;;5003481;28;20131;-66
2023/11/30 01:38:04;;;;;;;9.70;3.40;;;19.40;60.50;;;;;;5007561;28;20135;-65
2023/11/30 01:40:30;;;;;;;18.63;5.30;;;19.40;60.80;;;;;;5012489;28;20051;-64
2023/11/30 01:42:57;;;;;;;10.38;3.05;;;19.40;60.90;;;;;;5004982;28;20572;-65
2023/11/30 01:45:23;;;;;;;8.85;2.50;;;19.30;61.00;;;;;;5005839;28;20109;-64
2023/11/30 01:47:52;;;;;;;6.50;2.47;;;19.30;61.10;;;;;;5002064;28;20064;-62
2023/11/30 01:50:19;;;;;;;9.90;2.42;;;19.30;61.20;;;;;;4988695;28;20061;-65
2023/11/30 01:52:48;;;;;;;10.00;2.58;;;19.30;61.50;;;;;;5005244;28;20059;-64
2023/11/30 01:55:14;;;;;;;9.55;2.85;;;19.20;61.50;;;;;;5011842;28;20457;-64
2023/11/30 01:57:41;;;;;;;15.18;2.67;;;19.20;61.50;;;;;;5001781;28;20052;-64
2023/11/30 02:00:09;;;;;;;11.18;2.55;;;19.10;61.70;;;;;;5009297;28;20097;-64
2023/11/30 02:02:36;;;;;;;10.00;2.30;;;19.10;61.80;;;;;;5011991;28;20059;-64
2023/11/30 02:05:03;;;;;;;11.40;2.40;;;19.10;62.00;;;;;;4999855;28;20164;-64
2023/11/30 02:07:30;;;;;;;9.10;2.40;;;19.10;62.20;;;;;;4993982;28;20104;-64
2023/11/30 02:09:56;;;;;;;11.57;2.55;;;19.10;62.50;;;;;;4992074;28;20110;-65
2023/11/30 02:12:23;;;;;;;9.88;2.58;;;19.10;62.90;;;;;;5008553;28;20516;-67
2023/11/30 02:14:49;;;;;;;12.10;2.65;;;19.10;63.10;;;;;;5002761;28;20089;-65
2023/11/30 02:17:15;;;;;;;13.40;2.80;;;19.00;63.60;;;;;;4993961;28;20114;-64
2023/11/30 02:19:42;;;;;;;14.52;3.00;;;19.00;63.80;;;;;;4983230;28;20099;-66
2023/11/30 02:22:08;;;;;;;10.98;2.58;;;18.90;64.20;;;;;;4991179;28;20069;-66
2023/11/30 02:24:35;;;;;;;11.73;2.97;;;18.90;64.70;;;;;;5010871;28;20049;-67
2023/11/30 02:27:01;;;;;;;14.63;2.53;;;18.80;64.80;;;;;;5007949;28;20098;-66
2023/11/30 02:29:28;;;;;;;11.45;2.72;;;18.80;65.00;;;;;;5000479;28;20073;-66
2023/11/30 02:32:13;;;;;;;10.45;2.15;;;18.70;65.30;;;;;;5011657;28;20076;-66
2023/11/30 02:34:39;;;;;;;6.78;2.20;;;18.70;65.90;;;;;;5010506;28;20081;-66
2023/11/30 02:37:06;;;;;;;13.43;2.70;;;18.70;66.50;;;;;;4995498;28;20049;-65
2023/11/30 02:39:32;;;;;;;7.80;2.33;;;18.70;66.70;;;;;;4991790;28;20054;-68
2023/11/30 02:41:59;;;;;;;9.20;2.88;;;18.60;67.50;;;;;;5009682;28;20108;-67
2023/11/30 02:44:25;;;;;;;20.40;2.63;;;18.60;68.00;;;;;;4996603;28;20047;-66
2023/11/30 02:46:52;;;;;;;12.50;2.92;;;18.50;68.40;;;;;;5000090;28;20105;-65
2023/11/30 02:49:18;;;;;;;6.93;2.85;;;18.50;68.60;;;;;;5001663;28;20053;-68
2023/11/30 02:51:44;;;;;;;7.40;2.47;;;18.50;69.10;;;;;;4992380;28;20434;-67
2023/11/30 02:54:11;;;;;;;6.45;2.08;;;18.50;69.60;;;;;;4994452;28;20074;-67
2023/11/30 02:56:41;;;;;;;6.57;2.15;;;18.50;70.20;;;;;;4999796;28;20058;-68
2023/11/30 02:59:27;;;;;;;13.52;2.15;;;18.40;70.40;;;;;;4987161;28;20627;-68
2023/11/30 03:01:54;;;;;;;9.07;2.60;;;18.40;70.40;;;;;;4984703;28;20075;-63
2023/11/30 03:04:20;;;;;;;10.00;2.38;;;18.40;70.60;;;;;;5004091;28;20066;-67
2023/11/30 03:06:51;;;;;;;5.88;1.90;;;18.40;70.90;;;;;;4995737;28;20081;-70
2023/11/30 03:09:18;;;;;;;10.65;2.00;;;18.40;71.10;;;;;;5007512;28;20058;-67
2023/11/30 03:11:44;;;;;;;10.88;2.05;;;18.40;71.20;;;;;;4993368;28;20057;-64
2023/11/30 03:14:11;;;;;;;8.63;2.00;;;18.40;71.40;;;;;;4992764;28;20057;-67
2023/11/30 03:16:37;;;;;;;8.13;1.98;;;18.30;71.50;;;;;;4986386;28;20060;-65
2023/11/30 03:19:04;;;;;;;10.88;2.03;;;18.30;71.70;;;;;;5008137;28;20064;-65
2023/11/30 03:21:30;;;;;;;5.68;1.70;;;18.30;71.80;;;;;;4993161;28;20069;-64
2023/11/30 03:23:57;;;;;;;5.47;1.50;;;18.30;72.00;;;;;;5000492;28;20058;-68
2023/11/30 03:26:24;;;;;;;7.38;1.63;;;18.30;72.00;;;;;;5007876;28;20101;-67
2023/11/30 03:28:51;;;;;;;5.40;1.80;;;18.40;72.00;;;;;;4999400;28;20050;-67
2023/11/30 03:31:18;;;;;;;7.57;2.00;;;18.40;72.10;;;;;;5000685;28;20141;-64
2023/11/30 03:33:44;;;;;;;7.30;1.70;;;18.40;72.20;;;;;;4999234;28;20049;-66
2023/11/30 03:36:10;;;;;;;7.38;2.03;;;18.40;72.30;;;;;;5002618;28;20076;-64
2023/11/30 03:38:37;;;;;;;9.70;2.33;;;18.40;72.40;;;;;;5003336;28;20056;-67
2023/11/30 03:41:03;;;;;;;5.93;1.67;;;18.40;72.70;;;;;;5010884;28;20046;-64
2023/11/30 03:43:30;;;;;;;12.00;2.78;;;18.40;72.80;;;;;;4996734;28;20100;-62
2023/11/30 03:45:56;;;;;;;8.90;3.20;;;18.40;72.80;;;;;;4998056;28;20057;-63
2023/11/30 03:48:23;;;;;;;11.70;2.72;;;18.40;72.90;;;;;;5000496;28;20057;-65
2023/11/30 03:50:49;;;;;;;22.08;3.22;;;18.40;73.00;;;;;;5010633;28;20140;-64
2023/11/30 03:53:16;;;;;;;11.68;2.38;;;18.40;73.40;;;;;;5010450;28;20058;-63
2023/11/30 03:55:42;;;;;;;12.85;3.00;;;18.40;73.70;;;;;;5003933;28;20152;-67
2023/11/30 03:58:09;;;;;;;10.60;2.20;;;18.40;73.90;;;;;;5002721;28;20092;-64
2023/11/30 04:00:35;;;;;;;6.85;1.90;;;18.40;74.10;;;;;;4971375;28;20043;-62
2023/11/30 04:03:02;;;;;;;11.10;2.13;;;18.40;74.00;;;;;;5008571;28;20551;-62
2023/11/30 04:05:28;;;;;;;9.02;1.92;;;18.40;73.90;;;;;;4997417;28;20113;-63
2023/11/30 04:07:54;;;;;;;12.30;1.98;;;18.40;73.80;;;;;;5009010;28;20081;-63
2023/11/30 04:10:21;;;;;;;10.73;1.80;;;18.40;73.80;;;;;;5006487;28;20064;-63
2023/11/30 04:12:47;;;;;;;5.60;1.63;;;18.40;74.10;;;;;;4999279;28;20053;-63
2023/11/30 04:15:14;;;;;;;6.00;1.70;;;18.40;74.20;;;;;;5010111;28;20054;-64
2023/11/30 04:17:40;;;;;;;7.38;1.80;;;18.30;74.30;;;;;;5009978;28;20494;-63
2023/11/30 04:20:08;;;;;;;7.72;1.58;;;18.30;74.30;;;;;;5004650;28;20507;-63
2023/11/30 04:22:35;;;;;;;5.25;1.60;;;18.30;74.50;;;;;;5001707;28;20058;-63
2023/11/30 04:25:01;;;;;;;7.35;1.45;;;18.30;74.40;;;;;;4995015;28;20069;-63
2023/11/30 04:27:27;;;;;;;4.22;1.90;;;18.30;74.50;;;;;;4988826;28;20065;-63
2023/11/30 04:29:54;;;;;;;4.57;1.60;;;18.30;74.60;;;;;;4992148;28;20431;-62
2023/11/30 04:32:20;;;;;;;8.57;1.50;;;18.30;74.60;;;;;;5002489;28;20078;-63
2023/11/30 04:34:48;;;;;;;6.90;1.90;;;18.30;74.60;;;;;;4992351;28;20417;-62
2023/11/30 04:37:14;;;;;;;5.10;1.50;;;18.20;74.70;;;;;;4984542;28;20070;-61
2023/11/30 04:39:41;;;;;;;12.63;1.92;;;18.30;74.60;;;;;;4989919;28;20154;-63
2023/11/30 04:42:07;;;;;;;4.70;1.45;;;18.20;74.50;;;;;;4991560;28;20053;-61
2023/11/30 04:44:34;;;;;;;6.60;1.70;;;18.20;74.50;;;;;;4987395;28;20168;-63
2023/11/30 04:47:00;;;;;;;3.42;1.40;;;18.20;74.40;;;;;;4983784;28;20142;-64
2023/11/30 04:49:26;;;;;;;6.22;1.50;;;18.20;74.40;;;;;;4985118;28;20054;-63
2023/11/30 04:51:53;;;;;;;9.88;1.45;;;18.20;74.40;;;;;;4983422;28;20086;-64
2023/11/30 04:54:19;;;;;;;5.43;1.55;;;18.20;74.50;;;;;;4988083;28;20083;-63
2023/11/30 04:56:46;;;;;;;4.93;1.70;;;18.20;74.50;;;;;;4982131;28;20518;-63
2023/11/30 04:59:12;;;;;;;5.05;1.40;;;18.10;74.70;;;;;;4993810;28;20455;-64
2023/11/30 05:01:39;;;;;;;8.10;3.10;;;18.20;74.90;;;;;;4992449;28;20547;-63
2023/11/30 05:04:05;;;;;;;3.13;1.50;;;18.20;75.10;;;;;;5000732;28;20112;-64
2023/11/30 05:06:32;;;;;;;7.40;2.10;;;18.10;75.40;;;;;;5001902;28;20070;-63
2023/11/30 05:08:58;;;;;;;4.80;2.00;;;18.00;75.70;;;;;;5000527;28;20078;-64
2023/11/30 05:11:25;;;;;;;6.78;2.22;;;18.00;75.80;;;;;;4993236;28;20161;-63
2023/11/30 05:13:51;;;;;;;8.48;2.10;;;18.00;76.20;;;;;;4984292;28;20046;-64
2023/11/30 05:16:18;;;;;;;7.82;2.90;;;18.00;76.30;;;;;;4996651;28;20055;-63
2023/11/30 05:18:44;;;;;;;8.48;2.03;;;18.00;76.40;;;;;;4987776;28;20059;-64
2023/11/30 05:21:12;;;;;;;8.73;2.25;;;18.00;76.70;;;;;;4994709;28;20054;-63
2023/11/30 05:23:38;;;;;;;5.47;1.85;;;17.90;77.00;;;;;;4985821;28;20439;-63
2023/11/30 05:26:06;;;;;;;5.53;1.95;;;17.90;77.10;;;;;;4991367;28;20404;-63
2023/11/30 05:28:32;;;;;;;7.88;1.92;;;17.90;77.20;;;;;;4991658;28;20047;-63
2023/11/30 05:30:59;;;;;;;6.57;2.20;;;17.90;77.30;;;;;;4989794;28;20065;-63
2023/11/30 05:33:29;;;;;;;6.20;1.83;;;17.80;77.30;;;;;;4987025;28;20046;-62
2023/11/30 05:35:56;;;;;;;5.93;2.10;;;17.80;77.30;;;;;;4993370;28;20061;-63
2023/11/30 05:38:22;;;;;;;5.35;1.75;;;17.90;77.30;;;;;;4987250;28;20055;-63
2023/11/30 05:40:49;;;;;;;5.35;1.75;;;17.90;77.30;;;;;;4992139;28;20079;-63
2023/11/30 05:43:16;;;;;;;4.47;2.10;;;17.90;77.40;;;;;;4991193;28;20120;-63
2023/11/30 05:45:43;;;;;;;3.53;2.28;;;17.90;77.40;;;;;;4989625;28;20515;-63
2023/11/30 05:48:10;;;;;;;7.70;2.10;;;17.90;77.50;;;;;;4992493;28;20108;-63
2023/11/30 05:50:36;;;;;;;2.95;1.70;;;17.80;77.50;;;;;;4987693;28;20066;-63
2023/11/30 05:53:04;;;;;;;6.38;1.85;;;17.80;77.50;;;;;;4985754;28;20058;-62
2023/11/30 05:55:31;;;;;;;6.00;1.98;;;17.80;77.50;;;;;;4988880;28;20090;-62
2023/11/30 05:57:57;;;;;;;3.97;1.80;;;17.80;77.60;;;;;;4990491;28;20470;-63
2023/11/30 06:00:24;;;;;;;4.10;1.83;;;17.80;77.60;;;;;;4989898;28;20101;-64
2023/11/30 06:02:50;;;;;;;3.92;1.85;;;17.80;77.60;;;;;;5000970;28;20059;-63
2023/11/30 06:05:17;;;;;;;4.32;1.80;;;17.80;77.80;;;;;;5001583;28;20061;-63
2023/11/30 06:07:44;;;;;;;7.53;1.83;;;17.80;77.90;;;;;;5004955;28;20107;-64
2023/11/30 06:10:11;;;;;;;4.75;1.40;;;17.70;78.00;;;;;;5003041;28;20058;-63
2023/11/30 06:12:39;;;;;;;5.22;1.52;;;17.70;78.20;;;;;;4991931;28;20520;-64
2023/11/30 06:15:06;;;;;;;4.80;1.20;;;17.70;78.20;;;;;;4983917;28;20393;-62
2023/11/30 06:17:32;;;;;;;3.35;1.25;;;17.70;78.30;;;;;;4989209;28;20057;-63
2023/11/30 06:19:59;;;;;;;3.45;1.67;;;17.70;78.30;;;;;;4994984;28;20054;-63
2023/11/30 06:22:25;;;;;;;5.47;1.50;;;17.70;78.40;;;;;;4998120;28;20058;-62
2023/11/30 06:24:52;;;;;;;6.35;1.33;;;17.70;78.40;;;;;;5005194;28;20068;-62
2023/11/30 06:27:18;;;;;;;7.13;1.95;;;17.60;78.40;;;;;;5011574;28;20066;-63
2023/11/30 06:29:44;;;;;;;3.67;1.80;;;17.70;78.60;;;;;;5008807;28;20146;-62
2023/11/30 06:32:11;;;;;;;6.30;2.20;;;17.60;78.60;;;;;;4996049;28;20088;-64
2023/11/30 06:34:37;;;;;;;6.82;2.45;;;17.60;78.60;;;;;;4971792;28;20063;-64
2023/11/30 06:37:04;;;;;;;7.82;3.72;;;17.60;78.60;;;;;;4995028;28;20062;-63
2023/11/30 06:39:30;;;;;;;9.68;4.28;;;17.60;78.80;;;;;;5000527;28;20049;-63
2023/11/30 06:41:57;;;;;;;10.07;4.20;;;17.60;79.00;;;;;;5011368;28;20570;-64
2023/11/30 06:44:23;;;;;;;8.90;3.60;;;17.50;79.00;;;;;;5011257;28;20062;-62
2023/11/30 06:46:50;;;;;;;5.22;3.00;;;17.60;79.30;;;;;;4997067;28;20528;-63
2023/11/30 06:49:16;;;;;;;9.52;3.55;;;17.50;79.40;;;;;;5008720;28;20073;-64
2023/11/30 06:51:42;;;;;;;4.50;2.33;;;17.50;79.50;;;;;;4995413;28;20050;-64
2023/11/30 06:54:09;;;;;;;5.00;1.98;;;17.50;79.60;;;;;;4998896;28;20948;-63
2023/11/30 06:56:36;;;;;;;3.35;1.70;;;17.50;79.60;;;;;;4993747;28;20093;-64
2023/11/30 06:59:02;;;;;;;2.65;1.25;;;17.50;79.90;;;;;;5004328;28;20059;-63
2023/11/30 07:01:30;;;;;;;3.20;1.63;;;17.50;79.80;;;;;;4996916;28;20067;-63
2023/11/30 07:03:57;;;;;;;4.90;1.30;;;17.50;79.70;;;;;;5010898;28;20058;-64
2023/11/30 07:06:23;;;;;;;2.30;1.27;;;17.40;79.80;;;;;;5006088;28;20077;-64
2023/11/30 07:08:49;;;;;;;6.00;1.60;;;17.50;79.90;;;;;;4992982;28;20046;-63
2023/11/30 07:11:16;;;;;;;7.55;1.38;;;17.40;79.80;;;;;;4996314;28;20105;-63
2023/11/30 07:13:43;;;;;;;8.15;1.50;;;17.40;79.80;;;;;;4992238;28;20061;-64
2023/11/30 07:16:10;;;;;;;4.65;1.50;;;17.40;80.10;;;;;;4997888;28;20522;-64
2023/11/30 07:18:37;;;;;;;4.70;1.38;;;17.30;79.90;;;;;;5004370;28;20081;-64
2023/11/30 07:21:04;;;;;;;5.45;1.63;;;17.40;80.00;;;;;;4992308;28;20534;-63
2023/11/30 07:23:30;;;;;;;4.68;1.38;;;17.30;80.00;;;;;;4994235;28;20587;-64
2023/11/30 07:25:58;;;;;;;5.90;1.60;;;17.30;80.00;;;;;;5008847;28;20446;-64
2023/11/30 07:28:26;;;;;;;2.83;1.50;;;17.30;80.00;;;;;;5009239;28;20047;-63
2023/11/30 07:30:52;;;;;;;4.25;2.63;;;17.30;79.80;;;;;;5001814;28;20519;-64
2023/11/30 07:33:19;;;;;;;5.05;1.80;;;17.20;79.70;;;;;;5006286;28;20050;-63
2023/11/30 07:35:45;;;;;;;2.75;1.50;;;17.30;79.70;;;;;;5010506;28;20522;-63
2023/11/30 07:38:12;;;;;;;3.50;1.30;;;17.30;79.50;;;;;;5007014;28;20077;-64
2023/11/30 07:40:38;;;;;;;4.47;1.48;;;17.20;79.20;;;;;;4999343;28;20047;-63
2023/11/30 07:43:04;;;;;;;7.63;1.10;;;17.30;79.10;;;;;;5003461;28;20418;-64
2023/11/30 07:45:31;;;;;;;1.63;1.00;;;17.30;79.10;;;;;;4994048;28;20527;-63
2023/11/30 07:47:58;;;;;;;3.30;1.05;;;17.30;79.00;;;;;;5009621;28;20099;-63
2023/11/30 07:50:27;;;;;;;5.72;1.75;;;17.30;79.10;;;;;;5010186;28;20554;-63
2023/11/30 07:52:53;;;;;;;3.13;1.20;;;17.20;79.20;;;;;;5006685;28;20453;-63
2023/11/30 07:55:20;;;;;;;4.53;1.40;;;17.20;79.50;;;;;;4998958;28;20089;-64
2023/11/30 07:57:47;;;;;;;2.67;1.20;;;17.20;79.70;;;;;;5000552;28;20051;-63
2023/11/30 08:00:15;;;;;;;3.17;1.52;;;17.10;80.00;;;;;;5005433;28;20108;-64
2023/11/30 08:02:42;;;;;;;3.83;1.45;;;17.10;80.30;;;;;;5010195;28;20063;-64
2023/11/30 08:05:09;;;;;;;4.57;1.55;;;17.10;80.50;;;;;;5010166;28;20055;-64
2023/11/30 08:07:35;;;;;;;4.22;1.30;;;17.00;80.80;;;;;;4996782;28;20113;-63
2023/11/30 08:10:04;;;;;;;3.08;1.23;;;17.00;81.00;;;;;;5009068;28;20081;-64
2023/11/30 08:12:31;;;;;;;2.58;1.10;;;17.00;81.30;;;;;;5006931;28;20053;-64
2023/11/30 08:14:58;;;;;;;3.17;1.38;;;17.00;81.40;;;;;;4999137;28;20051;-62
2023/11/30 08:17:25;;;;;;;2.22;1.10;;;16.90;81.50;;;;;;5004599;28;20085;-64
2023/11/30 08:19:51;;;;;;;1.73;0.95;;;16.90;82.00;;;;;;4991121;28;20056;-64
2023/11/30 08:22:17;;;;;;;2.08;1.35;;;16.90;82.20;;;;;;4994857;28;20053;-62
2023/11/30 08:24:44;;;;;;;1.95;1.00;;;16.90;82.30;;;;;;5005683;28;20055;-62
2023/11/30 08:27:11;;;;;;;4.15;1.30;;;16.90;82.50;;;;;;4998739;28;20082;-63
2023/11/30 08:29:37;;;;;;;2.78;1.05;;;16.90;82.50;;;;;;4990354;28;20509;-63
2023/11/30 08:32:04;;;;;;;4.13;1.15;;;16.90;82.80;;;;;;4993962;28;20497;-63
2023/11/30 08:34:30;;;;;;;2.05;0.95;;;16.90;82.80;;;;;;4997671;28;20086;-63
2023/11/30 08:36:57;;;;;;;1.92;1.20;;;16.90;82.80;;;;;;4995845;28;20059;-63
2023/11/30 08:39:23;;;;;;;5.80;1.23;;;16.90;83.00;;;;;;5000316;28;20070;-63
2023/11/30 08:41:50;;;;;;;6.47;1.33;;;16.90;83.20;;;;;;4997250;28;20083;-63
2023/11/30 08:44:17;;;;;;;3.53;1.65;;;16.90;83.40;;;;;;5011162;28;20177;-63
2023/11/30 08:46:43;;;;;;;2.83;1.30;;;16.90;83.70;;;;;;5013969;28;20071;-63
2023/11/30 08:49:12;;;;;;;4.70;1.98;;;16.90;84.00;;;;;;5013300;28;20099;-62
2023/11/30 08:51:38;;;;;;;3.05;0.98;;;16.90;84.20;;;;;;4997451;28;20080;-63
2023/11/30 08:54:05;;;;;;;2.22;0.90;;;16.90;84.40;;;;;;5011385;28;20592;-63
2023/11/30 08:56:31;;;;;;;2.22;0.80;;;16.90;84.60;;;;;;5009355;28;20581;-64
2023/11/30 08:58:58;;;;;;;2.97;1.00;;;16.90;84.80;;;;;;5002691;28;20066;-63
2023/11/30 09:01:24;;;;;;;4.00;1.20;;;16.90;85.00;;;;;;4999045;28;20055;-64
2023/11/30 09:03:52;;;;;;;2.55;0.85;;;16.90;85.20;;;;;;5013067;28;20531;-63
2023/11/30 09:06:19;;;;;;;3.67;0.80;;;16.90;86.00;;;;;;5012821;28;20125;-64
2023/11/30 09:08:45;;;;;;;2.17;0.90;;;16.80;85.50;;;;;;5008475;28;20050;-65
2023/11/30 09:11:12;;;;;;;4.60;0.95;;;16.90;85.80;;;;;;5003655;28;20081;-64
2023/11/30 09:13:38;;;;;;;0.68;0.68;;;16.80;86.00;;;;;;5012977;28;20076;-63
2023/11/30 09:16:05;;;;;;;1.42;0.57;;;16.80;86.20;;;;;;5003732;28;20138;-63
2023/11/30 09:18:32;;;;;;;3.17;0.75;;;16.80;86.40;;;;;;5006118;28;20055;-63
2023/11/30 09:21:00;;;;;;;0.95;0.60;;;16.80;86.70;;;;;;5007936;28;20550;-63
2023/11/30 09:23:29;;;;;;;1.08;0.77;;;16.80;86.80;;;;;;4999561;28;20497;-62
2023/11/30 09:25:56;;;;;;;2.65;0.80;;;16.80;87.10;;;;;;5011278;28;20055;-63
2023/11/30 09:28:22;;;;;;;1.52;0.85;;;16.70;87.30;;;;;;4998845;28;20046;-63
2023/11/30 09:30:48;;;;;;;2.65;1.27;;;16.70;87.40;;;;;;4998589;28;20058;-63
2023/11/30 09:33:15;;;;;;;2.47;1.02;;;16.70;87.70;;;;;;5000798;28;20520;-63
2023/11/30 09:35:41;;;;;;;3.65;0.80;;;16.70;88.10;;;;;;4992836;28;20064;-63
2023/11/30 09:38:09;;;;;;;2.47;0.90;;;16.70;88.20;;;;;;4992780;28;20056;-63
2023/11/30 09:40:36;;;;;;;2.08;1.00;;;16.60;88.40;;;;;;5011478;28;20064;-64
2023/11/30 09:43:04;;;;;;;1.75;0.90;;;16.60;88.50;;;;;;4999572;28;20113;-63
2023/11/30 09:45:31;;;;;;;3.35;1.13;;;16.60;88.60;;;;;;5009626;28;20062;-64
2023/11/30 09:47:58;;;;;;;1.83;1.10;;;16.60;88.70;;;;;;4998235;28;20204;-63
2023/11/30 09:50:25;;;;;;;1.88;1.10;;;16.60;88.70;;;;;;5006196;28;20046;-63
2023/11/30 09:52:52;;;;;;;2.95;0.70;;;16.60;89.00;;;;;;5003786;28;20058;-62
2023/11/30 09:55:25;;;;;;;0.93;0.70;;;16.60;88.90;;;;;;4999018;28;20096;-63
2023/11/30 09:57:51;;;;;;;1.33;0.60;;;16.60;88.80;;;;;;5011328;28;20070;-63
2023/11/30 10:00:18;;;;;;;1.35;0.50;;;16.60;88.70;;;;;;4999855;28;20061;-63
2023/11/30 10:02:53;;;;;;;2.50;0.60;;;16.70;88.60;;;;;;5010144;28;20061;-63
2023/11/30 10:05:19;;;;;;;3.35;0.50;;;16.70;88.60;;;;;;5011663;28;20188;-63
2023/11/30 10:07:46;;;;;;;1.05;0.68;;;16.70;88.60;;;;;;5008589;28;20149;-64
2023/11/30 10:10:14;;;;;;;1.05;0.70;;;16.60;88.70;;;;;;4999433;28;20047;-64
2023/11/30 10:12:40;;;;;;;2.47;0.77;;;16.70;89.00;;;;;;4995823;28;20078;-62
2023/11/30 10:15:09;;;;;;;2.03;0.60;;;16.60;88.80;;;;;;5005252;28;20516;-64
2023/11/30 10:17:36;;;;;;;0.98;0.68;;;16.60;88.90;;;;;;4997489;28;20531;-63
2023/11/30 10:20:06;;;;;;;1.15;0.80;;;16.60;89.20;;;;;;5007548;28;20077;-63
2023/11/30 10:22:33;;;;;;;1.30;0.68;;;16.60;89.30;;;;;;5001755;28;20059;-63
2023/11/30 10:24:59;;;;;;;1.58;0.80;;;16.60;89.70;;;;;;5011730;28;20070;-64
2023/11/30 10:27:29;;;;;;;4.13;0.80;;;16.50;89.80;;;;;;5011562;28;20408;-63
2023/11/30 10:30:10;;;;;;;2.78;0.73;;;16.50;90.10;;;;;;4987671;28;20146;-63
2023/11/30 10:32:39;;;;;;;3.15;0.75;;;16.50;90.20;;;;;;4991861;28;20093;-63
2023/11/30 10:35:06;;;;;;;3.92;0.70;;;16.50;90.30;;;;;;5008017;28;20564;-63
2023/11/30 10:37:48;;;;;;;1.20;0.52;;;16.60;90.40;;;;;;5011271;28;20059;-62
2023/11/30 10:40:17;;;;;;;1.13;0.80;;;16.50;90.60;;;;;;4997888;28;20139;-64
2023/11/30 10:42:48;;;;;;;1.77;0.85;;;16.50;90.70;;;;;;5011384;28;20067;-65
2023/11/30 10:45:15;;;;;;;3.13;1.05;;;16.50;90.80;;;;;;5008929;28;20067;-63
2023/11/30 10:47:45;;;;;;;1.60;1.10;;;16.40;90.90;;;;;;4999239;28;20097;-63
2023/11/30 10:50:11;;;;;;;1.15;1.05;;;16.50;90.90;;;;;;5007823;28;20119;-63
2023/11/30 10:52:39;;;;;;;1.13;0.80;;;16.40;90.90;;;;;;5000537;28;20119;-64
2023/11/30 10:55:19;;;;;;;0.90;0.70;;;16.40;91.10;;;;;;4998443;28;20086;-64
2023/11/30 10:57:46;;;;;;;2.90;0.80;;;16.40;91.20;;;;;;4990053;28;20114;-64
2023/11/30 11:00:14;;;;;;;1.95;0.73;;;16.40;91.20;;;;;;4993510;28;20058;-64
2023/11/30 11:02:47;;;;;;;1.00;0.70;;;16.40;91.30;;;;;;5006301;28;20156;-65
2023/11/30 11:05:22;;;;;;;3.42;0.63;;;16.40;91.30;;;;;;5001955;28;20097;-65
2023/11/30 11:07:51;;;;;;;1.53;0.77;;;16.40;91.40;;;;;;5001819;28;20109;-63
2023/11/30 11:10:28;;;;;;;3.53;0.60;;;16.40;91.40;;;;;;4996338;28;20056;-63
2023/11/30 11:13:01;;;;;;;0.52;0.45;;;16.30;91.40;;;;;;4999802;28;20540;-63
2023/11/30 11:15:29;;;;;;;1.20;0.50;;;16.30;91.50;;;;;;5004306;28;20361;-63
2023/11/30 11:18:03;;;;;;;1.98;0.70;;;16.20;91.60;;;;;;5000286;28;20058;-63
2023/11/30 11:20:31;;;;;;;1.55;0.90;;;16.20;91.80;;;;;;4990517;28;20419;-64
2023/11/30 11:23:08;;;;;;;3.05;0.80;;;16.20;91.80;;;;;;4997936;28;20060;-64
2023/11/30 11:25:41;;;;;;;1.58;0.70;;;16.20;91.80;;;;;;5010745;28;20067;-64
2023/11/30 11:28:07;;;;;;;1.80;1.08;;;16.20;91.80;;;;;;5010535;28;20066;-64
2023/11/30 11:30:42;;;;;;;2.78;1.00;;;16.20;91.90;;;;;;5001490;28;20051;-64
2023/11/30 11:33:08;;;;;;;3.58;1.05;;;16.10;92.00;;;;;;5001892;28;20095;-64
2023/11/30 11:35:35;;;;;;;1.20;0.60;;;16.10;92.00;;;;;;4999017;28;20054;-64
2023/11/30 11:38:06;;;;;;;1.20;0.88;;;16.10;92.10;;;;;;5004483;28;20057;-63
2023/11/30 11:40:32;;;;;;;4.13;0.90;;;16.10;92.10;;;;;;4988949;28;20061;-63
2023/11/30 11:43:00;;;;;;;0.90;0.52;;;16.10;92.30;;;;;;5008252;28;20551;-63
2023/11/30 11:45:26;;;;;;;3.20;0.93;;;16.20;92.30;;;;;;4998445;28;20559;-63
2023/11/30 11:47:53;;;;;;;0.80;0.60;;;16.20;92.40;;;;;;4992955;28;20070;-63
2023/11/30 11:50:19;;;;;;;0.98;0.88;;;16.20;92.50;;;;;;4998989;28;20039;-62
2023/11/30 11:52:46;;;;;;;1.33;1.00;;;16.20;92.50;;;;;;5005778;28;20051;-62
2023/11/30 11:55:13;;;;;;;3.97;0.80;;;16.30;92.60;;;;;;4992816;28;20078;-63
2023/11/30 11:57:42;;;;;;;1.20;0.80;;;16.30;92.60;;;;;;4990563;28;20058;-63
2023/11/30 12:00:18;;;;;;;3.13;1.17;;;16.30;92.70;;;;;;5007305;28;20147;-63
2023/11/30 12:02:45;;;;;;;2.03;0.80;;;16.30;92.80;;;;;;4996750;28;20064;-63
2023/11/30 12:05:13;;;;;;;75.15;4.70;;;16.30;92.90;;;;;;5010097;28;20054;-64
2023/11/30 12:07:49;;;;;;;34.92;2.30;;;16.30;93.00;;;;;;5010070;28;20209;-64
2023/11/30 12:10:27;;;;;;;5.45;1.17;;;16.30;93.00;;;;;;4997768;28;20531;-64
2023/11/30 12:12:55;;;;;;;4.55;1.00;;;16.30;93.10;;;;;;5003378;28;20063;-63
2023/11/30 12:15:21;;;;;;;3.78;0.80;;;16.20;93.30;;;;;;5009694;28;20050;-63
2023/11/30 12:17:48;;;;;;;2.58;0.90;;;16.20;93.50;;;;;;4994931;28;20046;-64
2023/11/30 12:20:17;;;;;;;2.17;0.90;;;16.20;93.70;;;;;;4996331;28;20067;-64
2023/11/30 12:22:45;;;;;;;2.28;0.73;;;16.10;93.90;;;;;;5010861;28;20435;-64
2023/11/30 12:25:11;;;;;;;1.58;0.90;;;16.10;94.20;;;;;;5005964;28;20079;-65
2023/11/30 12:27:38;;;;;;;1.52;0.60;;;16.00;94.60;;;;;;5008643;28;20094;-63
2023/11/30 12:30:05;;;;;;;1.55;0.52;;;16.00;94.90;;;;;;4999005;28;20058;-64
2023/11/30 12:32:31;;;;;;;2.78;0.60;;;16.00;95.00;;;;;;5003172;28;20391;-64
2023/11/30 12:34:59;;;;;;;1.50;0.73;;;16.00;95.10;;;;;;5003762;28;20066;-64
2023/11/30 12:37:26;;;;;;;1.95;0.60;;;16.00;95.40;;;;;;5006162;28;20392;-63
2023/11/30 12:39:52;;;;;;;1.48;0.60;;;16.00;95.40;;;;;;5013420;28;20476;-63
2023/11/30 12:42:19;;;;;;;0.73;0.50;;;16.10;95.60;;;;;;5013429;28;20512;-63
2023/11/30 12:44:46;;;;;;;0.73;0.60;;;16.00;95.70;;;;;;5007994;28;20125;-63